Time;durP1;ratioP1;P1;durP2;ratioP2;P2;SDS_P1;SDS_P2;PMS_P1;PMS_P2;Temp;Humidity;BMP_temperature;BMP_pressure;BME280_temperature;BME280_humidity;BME280_pressure;Samples;Min_cycle;Max_cycle;Signal;HPM_P1;HPM_P2
2021/11/04 00:00:29;;;;;;;33.90;20.63;;;;;;;7.78;77.52;95522.28;5035068;28;20496;-77
2021/11/04 00:02:55;;;;;;;34.25;22.10;;;;;;;7.72;77.17;95522.06;5038632;28;20025;-77
2021/11/04 00:05:21;;;;;;;35.20;19.67;;;;;;;7.85;76.44;95522.47;5035819;28;20381;-76
2021/11/04 00:07:49;;;;;;;33.80;20.00;;;;;;;7.70;77.46;95514.22;5037050;28;20398;-76
2021/11/04 00:10:14;;;;;;;40.72;21.65;;;;;;;7.65;77.63;95505.84;5037485;28;20075;-76
2021/11/04 00:12:40;;;;;;;35.78;20.65;;;;;;;7.61;78.48;95507.97;5035161;28;20028;-75
2021/11/04 00:15:05;;;;;;;37.75;21.02;;;;;;;7.55;78.35;95508.59;5035580;28;20384;-76
2021/11/04 00:17:31;;;;;;;58.63;30.02;;;;;;;7.61;77.86;95520.50;5035386;28;20021;-75
2021/11/04 00:19:56;;;;;;;75.13;33.25;;;;;;;7.48;78.06;95527.06;5019655;28;20042;-75
2021/11/04 00:22:21;;;;;;;56.92;27.65;;;;;;;7.48;77.62;95526.25;5035631;28;20531;-76
2021/11/04 00:24:47;;;;;;;52.17;28.33;;;;;;;7.45;78.21;95521.22;5036931;28;20013;-76
2021/11/04 00:27:12;;;;;;;43.58;25.60;;;;;;;7.47;78.17;95520.06;5037385;28;20514;-77
2021/11/04 00:29:38;;;;;;;50.30;27.08;;;;;;;7.57;77.56;95529.81;5035361;28;20025;-76
2021/11/04 00:32:04;;;;;;;57.17;28.98;;;;;;;7.56;77.58;95525.47;5034214;28;20022;-76
2021/11/04 00:34:29;;;;;;;57.90;28.33;;;;;;;7.54;77.78;95538.97;5035064;28;20025;-76
2021/11/04 00:36:55;;;;;;;57.22;29.08;;;;;;;7.65;77.11;95548.53;5034365;28;20025;-77
2021/11/04 00:39:20;;;;;;;48.85;25.58;;;;;;;7.58;76.84;95552.84;5036609;28;20036;-76
2021/11/04 00:41:46;;;;;;;43.90;24.48;;;;;;;7.55;77.71;95548.63;5034815;28;20036;-75
2021/11/04 00:44:11;;;;;;;39.15;21.70;;;;;;;7.56;79.13;95549.47;5036874;28;20024;-76
2021/11/04 00:46:37;;;;;;;44.85;22.98;;;;;;;7.54;79.41;95546.97;5038151;28;20036;-76
2021/11/04 00:49:03;;;;;;;51.65;26.15;;;;;;;7.54;78.80;95542.44;5019273;28;20051;-77
2021/11/04 00:51:28;;;;;;;59.75;30.77;;;;;;;7.56;78.66;95549.47;5036816;28;20106;-76
2021/11/04 00:53:54;;;;;;;57.63;30.15;;;;;;;7.49;77.98;95541.25;5037479;28;20426;-75
2021/11/04 00:56:19;;;;;;;45.80;24.40;;;;;;;7.54;77.65;95547.78;5037908;28;20033;-75
2021/11/04 00:58:49;;;;;;;33.50;19.80;;;;;;;7.64;78.67;95536.22;5033941;28;20021;-75
2021/11/04 01:01:14;;;;;;;35.47;21.10;;;;;;;7.65;78.54;95535.19;5036715;28;20056;-75
2021/11/04 01:03:40;;;;;;;42.03;23.27;;;;;;;7.68;78.29;95529.53;5034173;28;20404;-76
2021/11/04 01:06:05;;;;;;;37.35;21.55;;;;;;;7.73;78.42;95523.72;5035741;28;21640;-76
2021/11/04 01:08:31;;;;;;;35.22;20.35;;;;;;;7.66;78.63;95519.03;5036199;28;20025;-76
2021/11/04 01:10:56;;;;;;;36.85;21.35;;;;;;;7.70;78.38;95524.91;5035868;28;20032;-77
2021/11/04 01:13:22;;;;;;;43.22;23.98;;;;;;;7.69;78.14;95517.88;5036217;28;20021;-75
2021/11/04 01:15:47;;;;;;;39.70;22.30;;;;;;;7.74;78.47;95520.91;5034301;28;20604;-76
2021/11/04 01:18:13;;;;;;;42.40;23.05;;;;;;;7.84;77.51;95517.28;5033107;28;20051;-76
2021/11/04 01:20:38;;;;;;;38.75;21.20;;;;;;;7.74;78.49;95507.56;5024781;28;20053;-75
2021/11/04 01:23:03;;;;;;;37.17;20.92;;;;;;;7.68;78.97;95513.53;5027200;28;20040;-76
2021/11/04 01:25:29;;;;;;;44.22;22.92;;;;;;;7.66;78.70;95502.16;5026209;28;20044;-76
2021/11/04 01:27:54;;;;;;;40.00;22.55;;;;;;;7.55;79.11;95511.28;5028566;28;20044;-76
2021/11/04 01:30:20;;;;;;;38.28;21.48;;;;;;;7.60;78.92;95513.47;5025951;28;20036;-78
2021/11/04 01:32:47;;;;;;;35.00;21.83;;;;;;;7.59;81.76;95512.66;5026160;28;20021;-75
2021/11/04 01:35:12;;;;;;;40.97;21.33;;;;;;;7.59;78.51;95531.34;5032704;28;20480;-78
2021/11/04 01:37:38;;;;;;;35.33;20.00;;;;;;;7.50;79.25;95509.06;5024072;28;20041;-77
2021/11/04 01:40:04;;;;;;;34.20;19.70;;;;;;;7.57;79.31;95527.13;5026342;28;20091;-75
2021/11/04 01:42:29;;;;;;;34.40;19.88;;;;;;;7.50;80.26;95521.56;5024671;28;20017;-75
2021/11/04 01:44:55;;;;;;;33.22;19.00;;;;;;;7.47;81.27;95504.03;5027701;28;20404;-76
2021/11/04 01:47:20;;;;;;;33.10;18.80;;;;;;;7.62;82.04;95517.69;5025701;28;20034;-76
2021/11/04 01:49:46;;;;;;;33.25;19.63;;;;;;;7.49;82.11;95486.06;5026213;28;20025;-78
2021/11/04 01:52:11;;;;;;;36.85;20.20;;;;;;;7.60;81.95;95502.78;5024653;28;20037;-74
2021/11/04 01:54:37;;;;;;;35.05;18.98;;;;;;;7.62;82.20;95506.16;5026899;28;20033;-74
2021/11/04 01:57:03;;;;;;;30.30;19.33;;;;;;;7.61;81.87;95499.97;5030052;28;20130;-79
2021/11/04 01:59:28;;;;;;;37.65;20.23;;;;;;;7.60;82.38;95505.47;5045030;28;20457;-74
2021/11/04 02:02:22;;;;;;;31.02;18.77;;;;;;;7.59;82.11;95493.97;5045675;28;20021;-75
2021/11/04 02:04:59;;;;;;;30.13;17.83;;;;;;;7.71;81.46;95501.69;5037233;28;20037;-76
2021/11/04 02:07:42;;;;;;;27.77;16.92;;;;;;;7.83;81.25;95508.47;5025968;28;20038;-76
2021/11/04 02:10:09;;;;;;;;;;;;;;;7.77;81.27;95501.91;5027353;28;20033;-76
2021/11/04 02:13:00;;;;;;;27.20;16.67;;;;;;;7.73;83.10;95505.91;5008302;28;19917;-76
2021/11/04 02:15:27;;;;;;;27.52;16.40;;;;;;;7.79;82.13;95507.09;5034860;28;20045;-78
2021/11/04 02:17:52;;;;;;;31.63;16.30;;;;;;;7.95;81.64;95527.69;5027699;28;20487;-76
2021/11/04 02:20:22;;;;;;;27.10;16.90;;;;;;;7.93;81.07;95505.69;5033777;28;20095;-78
2021/11/04 02:22:55;;;;;;;25.92;15.00;;;;;;;8.12;82.09;95511.78;5024790;28;20037;-76
2021/11/04 02:25:27;;;;;;;24.30;15.65;;;;;;;8.12;81.40;95523.31;5024772;28;20034;-74
2021/11/04 02:27:55;;;;;;;24.55;15.50;;;;;;;8.07;81.83;95525.59;5025287;28;20041;-74
2021/11/04 02:30:21;;;;;;;28.77;17.15;;;;;;;8.13;80.75;95537.47;5026655;28;20033;-77
2021/11/04 02:32:47;;;;;;;29.58;16.63;;;;;;;8.11;80.92;95536.81;5031349;28;20030;-76
2021/11/04 02:35:14;;;;;;;24.30;14.82;;;;;;;8.14;81.29;95525.81;5015445;28;20032;-75
2021/11/04 02:37:39;;;;;;;25.42;15.07;;;;;;;8.20;81.32;95549.22;5030017;28;20500;-74
2021/11/04 02:40:06;;;;;;;26.33;15.73;;;;;;;8.24;80.92;95557.72;5018183;28;20082;-75
2021/11/04 02:42:31;;;;;;;28.63;17.08;;;;;;;8.25;80.04;95538.06;5049385;28;20025;-75
2021/11/04 02:44:57;;;;;;;28.33;17.33;;;;;;;8.26;80.39;95548.59;5031821;28;20025;-76
2021/11/04 02:47:22;;;;;;;26.33;15.07;;;;;;;8.27;81.25;95550.25;5031046;28;20029;-76
2021/11/04 02:49:48;;;;;;;25.35;15.73;;;;;;;8.30;80.52;95546.44;5050010;28;20043;-74
2021/11/04 02:52:14;;;;;;;24.42;16.45;;;;;;;8.28;80.36;95549.28;5023434;28;20026;-74
2021/11/04 02:54:52;;;;;;;29.83;17.77;;;;;;;8.25;80.23;95554.91;5029347;28;20419;-76
2021/11/04 02:57:18;;;;;;;28.33;16.73;;;;;;;8.27;79.81;95560.13;5036635;28;20022;-75
2021/11/04 02:59:43;;;;;;;27.02;16.25;;;;;;;8.35;79.49;95575.34;5028861;28;20032;-75
2021/11/04 03:02:09;;;;;;;23.85;16.08;;;;;;;8.33;79.81;95572.00;5027740;28;20034;-75
2021/11/04 03:04:34;;;;;;;27.08;16.67;;;;;;;8.29;79.69;95572.31;5029438;28;20033;-76
2021/11/04 03:07:01;;;;;;;28.67;17.27;;;;;;;8.22;79.75;95576.59;5029952;28;20030;-76
2021/11/04 03:09:26;;;;;;;27.98;15.95;;;;;;;8.22;79.03;95576.59;5027143;28;20033;-76
2021/11/04 03:11:53;;;;;;;27.33;16.70;;;;;;;8.21;79.30;95574.09;5033252;28;20032;-76
2021/11/04 03:14:18;;;;;;;30.13;15.85;;;;;;;8.11;78.59;95582.25;5047427;28;20041;-77
2021/11/04 03:16:45;;;;;;;27.75;15.52;;;;;;;8.12;78.65;95582.09;5032303;28;20052;-77
2021/11/04 03:19:12;;;;;;;24.90;15.13;;;;;;;8.12;79.01;95582.09;5031116;28;20605;-76
2021/11/04 03:21:39;;;;;;;22.40;14.45;;;;;;;8.21;79.18;95590.97;5031897;28;20045;-76
2021/11/04 03:24:05;;;;;;;23.23;14.48;;;;;;;8.28;78.76;95586.69;5046889;28;20431;-76
2021/11/04 03:26:31;;;;;;;26.85;17.02;;;;;;;8.21;78.75;95582.94;5047622;28;20033;-76
2021/11/04 03:28:57;;;;;;;27.58;15.80;;;;;;;8.07;78.65;95584.38;5046413;28;20025;-74
2021/11/04 03:31:23;;;;;;;26.45;16.58;;;;;;;7.97;78.63;95578.28;5030001;28;20044;-78
2021/11/04 03:33:49;;;;;;;24.42;15.90;;;;;;;7.82;78.74;95578.03;5022467;28;20025;-75
2021/11/04 03:36:14;;;;;;;30.55;17.10;;;;;;;7.83;79.00;95572.53;5029865;28;20491;-75
2021/11/04 03:38:40;;;;;;;34.13;20.77;;;;;;;7.82;78.86;95567.38;5003890;28;20416;-75
2021/11/04 03:41:07;;;;;;;35.05;21.52;;;;;;;7.78;78.08;95570.34;5005569;28;20522;-76
2021/11/04 03:43:32;;;;;;;29.73;18.13;;;;;;;7.74;77.94;95582.31;5044017;28;20470;-76
2021/11/04 03:45:57;;;;;;;25.95;15.98;;;;;;;7.86;78.66;95576.72;5031209;28;20049;-76
2021/11/04 03:48:23;;;;;;;31.70;18.70;;;;;;;7.96;77.32;95580.16;5010481;28;20022;-76
2021/11/04 03:50:49;;;;;;;39.42;20.77;;;;;;;7.83;78.18;95571.69;5028436;28;20033;-78
2021/11/04 03:53:17;;;;;;;34.15;18.65;;;;;;;7.76;78.65;95569.66;5020375;28;20033;-75
2021/11/04 03:55:43;;;;;;;35.83;18.98;;;;;;;7.70;77.92;95578.28;5030920;28;20525;-77
2021/11/04 03:58:08;;;;;;;41.55;21.85;;;;;;;7.65;78.30;95575.25;5038288;28;20498;-77
2021/11/04 04:00:34;;;;;;;40.65;21.98;;;;;;;7.63;78.69;95571.88;5028054;28;20120;-76
2021/11/04 04:02:59;;;;;;;41.58;23.95;;;;;;;7.66;78.79;95582.25;5026673;28;20036;-75
2021/11/04 04:05:29;;;;;;;42.47;25.73;;;;;;;7.62;79.40;95578.22;5027356;28;20025;-77
2021/11/04 04:07:54;;;;;;;46.90;27.00;;;;;;;7.52;79.54;95578.31;5028790;28;20109;-75
2021/11/04 04:10:20;;;;;;;47.80;25.92;;;;;;;7.49;79.49;95576.81;5034938;28;20032;-75
2021/11/04 04:12:46;;;;;;;46.60;26.77;;;;;;;7.44;79.41;95584.41;5047176;28;20391;-77
2021/11/04 04:15:12;;;;;;;37.22;22.40;;;;;;;7.44;79.84;95579.09;5045219;28;20511;-75
2021/11/04 04:17:37;;;;;;;35.97;21.23;;;;;;;7.45;79.30;95577.25;5031099;28;20100;-77
2021/11/04 04:20:03;;;;;;;40.42;22.38;;;;;;;7.48;79.62;95569.75;5045473;28;20072;-77
2021/11/04 04:22:28;;;;;;;37.75;21.38;;;;;;;7.55;78.97;95575.31;5046596;28;20412;-77
2021/11/04 04:24:54;;;;;;;46.25;26.02;;;;;;;7.53;78.58;95582.63;5047336;28;20103;-77
2021/11/04 04:27:19;;;;;;;39.22;23.92;;;;;;;7.44;77.47;95579.09;5048890;28;20021;-76
2021/11/04 04:29:45;;;;;;;36.15;21.25;;;;;;;7.40;77.22;95583.03;5048402;28;20025;-77
2021/11/04 04:32:10;;;;;;;31.20;19.08;;;;;;;7.35;75.96;95583.50;5047277;28;20534;-76
2021/11/04 04:34:36;;;;;;;29.70;18.00;;;;;;;7.29;77.72;95584.09;5048413;28;20024;-77
2021/11/04 04:37:01;;;;;;;32.80;19.98;;;;;;;7.28;78.41;95585.13;5012386;28;20103;-76
2021/11/04 04:39:27;;;;;;;31.40;18.55;;;;;;;7.29;77.52;95586.78;5047621;28;20496;-75
2021/11/04 04:41:52;;;;;;;29.33;18.35;;;;;;;7.34;78.48;95584.50;5047259;28;20167;-77
2021/11/04 04:44:18;;;;;;;28.30;17.90;;;;;;;7.38;77.88;95585.03;5046667;28;20032;-76
2021/11/04 04:46:43;;;;;;;31.65;18.50;;;;;;;7.36;77.86;95577.19;5038265;28;20032;-76
2021/11/04 04:49:09;;;;;;;29.08;17.20;;;;;;;7.33;77.62;95580.16;5038798;28;20029;-77
2021/11/04 04:51:34;;;;;;;27.52;17.50;;;;;;;7.31;78.02;95579.47;5037987;28;20029;-74
2021/11/04 04:53:59;;;;;;;28.70;18.02;;;;;;;7.27;77.16;95575.44;5027051;28;20037;-75
2021/11/04 04:56:25;;;;;;;26.02;17.17;;;;;;;7.24;77.24;95589.09;5034270;28;20548;-75
2021/11/04 04:58:50;;;;;;;40.28;20.75;;;;;;;7.24;78.30;95578.41;5044101;28;20496;-76
2021/11/04 05:01:16;;;;;;;35.20;21.50;;;;;;;7.19;78.74;95573.50;5047110;28;20033;-77
2021/11/04 05:03:41;;;;;;;40.38;21.92;;;;;;;7.00;82.18;95577.16;5028587;28;20028;-76
2021/11/04 05:06:07;;;;;;;41.35;23.95;;;;;;;7.00;80.45;95577.16;5043989;28;20503;-77
2021/11/04 05:08:32;;;;;;;40.28;24.80;;;;;;;7.11;79.70;95584.94;5032854;28;20060;-75
2021/11/04 05:10:57;;;;;;;34.22;21.27;;;;;;;7.11;78.76;95576.13;5036366;28;20024;-76
2021/11/04 05:13:23;;;;;;;42.88;24.83;;;;;;;7.13;79.40;95582.97;5035670;28;20033;-77
2021/11/04 05:15:48;;;;;;;38.63;22.90;;;;;;;7.08;79.28;95569.25;5031550;28;20025;-75
2021/11/04 05:18:14;;;;;;;35.70;21.25;;;;;;;7.02;78.30;95570.72;5036705;28;20024;-79
2021/11/04 05:20:39;;;;;;;49.97;29.95;;;;;;;7.11;78.82;95568.13;5032801;28;20041;-76
2021/11/04 05:23:05;;;;;;;58.20;33.38;;;;;;;7.12;78.95;95569.78;5038204;28;20045;-75
2021/11/04 05:25:31;;;;;;;52.67;32.10;;;;;;;7.13;78.98;95574.13;5032590;28;20420;-77
2021/11/04 05:27:56;;;;;;;52.85;28.27;;;;;;;7.12;80.07;95580.47;5037301;28;20021;-76
2021/11/04 05:30:21;;;;;;;45.97;26.83;;;;;;;7.17;80.45;95580.84;5034083;28;20033;-77
2021/11/04 05:32:47;;;;;;;46.47;26.67;;;;;;;7.24;80.02;95584.56;5034679;28;20024;-79
2021/11/04 05:35:13;;;;;;;47.42;29.05;;;;;;;7.26;79.31;95576.41;5034218;28;20036;-79
2021/11/04 05:37:39;;;;;;;42.10;26.27;;;;;;;7.25;78.15;95580.09;5021234;28;20111;-79
2021/11/04 05:40:05;;;;;;;34.03;20.83;;;;;;;7.19;76.97;95578.03;5033809;28;20451;-78
2021/11/04 05:42:30;;;;;;;42.58;25.35;;;;;;;7.15;77.78;95582.81;5033331;28;20017;-77
2021/11/04 05:44:56;;;;;;;34.90;22.90;;;;;;;7.07;77.60;95588.06;5034852;28;20060;-78
2021/11/04 05:47:21;;;;;;;37.53;23.92;;;;;;;7.08;78.59;95585.25;5032765;28;20472;-79
2021/11/04 05:49:47;;;;;;;38.00;23.95;;;;;;;7.14;78.85;95592.66;5036498;28;20060;-78
2021/11/04 05:52:13;;;;;;;37.13;23.33;;;;;;;7.16;78.77;95600.50;5033805;28;20037;-75
2021/11/04 05:54:39;;;;;;;39.22;24.48;;;;;;;7.25;78.78;95596.09;5036279;28;20021;-75
2021/11/04 05:57:04;;;;;;;42.97;26.15;;;;;;;7.29;79.44;95603.63;5023601;28;20374;-74
2021/11/04 05:59:30;;;;;;;44.83;26.38;;;;;;;7.34;79.50;95613.84;5034022;28;20100;-76
2021/11/04 06:01:55;;;;;;;45.67;28.63;;;;;;;7.44;79.50;95632.47;5018468;28;20037;-74
2021/11/04 06:04:21;;;;;;;44.92;27.63;;;;;;;7.60;78.58;95652.28;5035508;28;20024;-74
2021/11/04 06:06:47;;;;;;;47.92;29.00;;;;;;;7.68;78.25;95660.34;5039976;28;20584;-71
2021/11/04 06:09:12;;;;;;;52.38;32.22;;;;;;;7.73;77.56;95667.91;5022011;28;20028;-72
2021/11/04 06:11:38;;;;;;;70.50;39.40;;;;;;;7.78;77.29;95673.63;5036922;28;20032;-72
2021/11/04 06:14:04;;;;;;;68.25;35.42;;;;;;;7.88;77.06;95668.22;5037978;28;20422;-77
2021/11/04 06:16:29;;;;;;;59.03;34.10;;;;;;;7.98;76.69;95657.44;5040684;28;20021;-76
2021/11/04 06:18:55;;;;;;;59.55;31.92;;;;;;;8.00;76.97;95663.44;5039408;28;20029;-77
2021/11/04 06:21:20;;;;;;;52.70;31.20;;;;;;;8.07;77.38;95658.31;5039717;28;20095;-77
2021/11/04 06:23:46;;;;;;;58.80;33.97;;;;;;;8.15;77.79;95663.75;5012782;28;20029;-76
2021/11/04 06:26:11;;;;;;;59.20;35.33;;;;;;;8.25;77.37;95652.94;5027391;28;20522;-76
2021/11/04 06:28:36;;;;;;;58.35;34.45;;;;;;;8.32;77.52;95663.84;5030840;28;20079;-75
2021/11/04 06:31:02;;;;;;;59.38;34.97;;;;;;;8.39;77.11;95662.22;5035455;28;20029;-77
2021/11/04 06:33:27;;;;;;;55.63;33.42;;;;;;;8.51;77.07;95660.94;5037278;28;20119;-76
2021/11/04 06:35:54;;;;;;;50.72;31.27;;;;;;;8.61;77.42;95646.69;5038497;28;20586;-76
2021/11/04 06:38:20;;;;;;;56.08;32.55;;;;;;;8.67;77.99;95647.88;5017250;28;20414;-74
2021/11/04 06:40:45;;;;;;;59.92;34.20;;;;;;;8.77;78.22;95644.06;5042315;28;20041;-76
2021/11/04 06:43:12;;;;;;;62.95;35.72;;;;;;;8.87;77.61;95653.78;5031649;28;20026;-77
2021/11/04 06:45:38;;;;;;;61.40;36.55;;;;;;;9.00;77.32;95648.84;5024426;28;20430;-77
2021/11/04 06:48:04;;;;;;;61.25;34.38;;;;;;;9.07;76.89;95665.09;5023780;28;20107;-74
2021/11/04 06:50:31;;;;;;;53.30;31.75;;;;;;;9.18;77.23;95666.63;5022802;28;20025;-76
2021/11/04 06:53:07;;;;;;;55.92;32.70;;;;;;;9.33;77.40;95674.03;5047932;28;20029;-76
2021/11/04 06:55:34;;;;;;;55.65;31.67;;;;;;;9.41;77.07;95676.72;5021918;28;20473;-76
2021/11/04 06:58:03;;;;;;;51.85;31.92;;;;;;;9.51;76.73;95666.69;5044891;28;20106;-76
2021/11/04 07:00:30;;;;;;;48.75;29.60;;;;;;;9.66;77.85;95666.06;5042467;28;20617;-77
2021/11/04 07:02:56;;;;;;;49.78;30.15;;;;;;;9.75;77.47;95666.91;5021536;28;20563;-75
2021/11/04 07:05:21;;;;;;;53.75;30.30;;;;;;;9.83;76.55;95674.13;5023255;28;20099;-76
2021/11/04 07:07:49;;;;;;;47.35;29.45;;;;;;;9.92;77.37;95672.25;5039440;28;20025;-76
2021/11/04 07:10:18;;;;;;;46.15;30.00;;;;;;;10.00;77.15;95681.16;5045114;28;20036;-76
2021/11/04 07:12:45;;;;;;;46.58;29.25;;;;;;;10.10;76.44;95677.47;5046407;28;20025;-76
2021/11/04 07:15:11;;;;;;;45.72;27.63;;;;;;;10.21;76.20;95677.13;5042171;28;20051;-78
2021/11/04 07:17:39;;;;;;;43.38;26.30;;;;;;;10.32;75.98;95691.19;5041662;28;20519;-79
2021/11/04 07:20:05;;;;;;;35.58;22.38;;;;;;;10.45;75.39;95687.97;5040412;28;20036;-79
2021/11/04 07:22:35;;;;;;;38.83;23.80;;;;;;;10.44;76.05;95684.47;5049214;28;20037;-79
2021/11/04 07:25:08;;;;;;;37.58;22.55;;;;;;;10.49;75.64;95682.13;5057534;28;20055;-80
2021/11/04 07:27:53;;;;;;;32.42;21.63;;;;;;;10.51;76.10;95677.44;5055393;28;20040;-80
2021/11/04 07:30:19;;;;;;;32.15;20.48;;;;;;;10.56;75.63;95682.28;5047830;28;20072;-79
2021/11/04 07:32:47;;;;;;;32.28;20.95;;;;;;;10.67;75.33;95682.97;5040792;28;20071;-80
2021/11/04 07:35:17;;;;;;;31.55;20.88;;;;;;;10.70;76.03;95685.28;5035754;28;20029;-81
2021/11/04 07:37:42;;;;;;;31.00;21.13;;;;;;;10.79;76.19;95678.03;5044314;28;20116;-80
2021/11/04 07:40:08;;;;;;;32.92;21.45;;;;;;;10.84;75.48;95683.75;5040159;28;20021;-80
2021/11/04 07:42:34;;;;;;;29.95;19.70;;;;;;;10.93;75.03;95684.56;5036104;28;20018;-80
2021/11/04 07:45:00;;;;;;;33.78;21.58;;;;;;;11.00;74.88;95670.28;5033295;28;20036;-80
2021/11/04 07:47:25;;;;;;;36.95;22.00;;;;;;;11.06;75.26;95674.09;5033000;28;20576;-79
2021/11/04 07:49:52;;;;;;;37.30;23.92;;;;;;;11.13;75.58;95671.56;5044631;28;20491;-81
2021/11/04 07:52:17;;;;;;;41.08;23.23;;;;;;;11.25;74.90;95682.75;5035470;28;20376;-77
2021/11/04 07:54:43;;;;;;;36.60;21.92;;;;;;;11.34;74.51;95680.84;5031698;28;20029;-75
2021/11/04 07:57:08;;;;;;;39.45;21.17;;;;;;;11.35;74.86;95687.88;5032190;28;20094;-76
2021/11/04 07:59:34;;;;;;;31.90;20.70;;;;;;;11.44;74.73;95680.66;5034853;28;20112;-75
2021/11/04 08:02:00;;;;;;;34.45;20.35;;;;;;;11.52;74.83;95685.97;5032687;28;20412;-77
2021/11/04 08:04:28;;;;;;;33.17;20.98;;;;;;;11.53;74.68;95682.25;5039060;28;20049;-78
2021/11/04 08:06:54;;;;;;;38.00;20.85;;;;;;;11.57;74.42;95685.44;5037896;28;20033;-75
2021/11/04 08:09:20;;;;;;;30.90;20.17;;;;;;;11.66;74.24;95684.38;5036623;28;20068;-80
2021/11/04 08:11:45;;;;;;;30.42;19.88;;;;;;;11.73;73.76;95679.97;5038863;28;20120;-77
2021/11/04 08:14:11;;;;;;;28.95;19.13;;;;;;;11.80;74.33;95681.94;5030601;28;20037;-75
2021/11/04 08:16:36;;;;;;;34.65;20.63;;;;;;;11.88;73.80;95687.28;5037012;28;20028;-73
2021/11/04 08:19:02;;;;;;;33.42;21.20;;;;;;;11.92;73.66;95685.03;5033827;28;20024;-73
2021/11/04 08:21:27;;;;;;;32.63;19.90;;;;;;;11.96;73.56;95678.31;5035976;28;20091;-74
2021/11/04 08:23:52;;;;;;;31.38;20.63;;;;;;;12.02;73.16;95676.72;5036227;28;20045;-73
2021/11/04 08:26:18;;;;;;;31.77;20.92;;;;;;;12.05;73.23;95679.91;5008353;28;20029;-73
2021/11/04 08:28:44;;;;;;;30.85;21.35;;;;;;;12.13;73.17;95679.03;5035319;28;20100;-74
2021/11/04 08:31:09;;;;;;;35.70;22.13;;;;;;;12.26;73.02;95672.19;5035709;28;20029;-73
2021/11/04 08:33:34;;;;;;;35.40;22.23;;;;;;;12.31;73.26;95670.66;5037496;28;20024;-74
2021/11/04 08:36:00;;;;;;;35.88;23.45;;;;;;;12.33;72.93;95673.16;5017860;28;20021;-73
2021/11/04 08:38:25;;;;;;;38.53;21.90;;;;;;;12.40;72.53;95675.97;5037644;28;20036;-74
2021/11/04 08:40:51;;;;;;;36.08;22.63;;;;;;;12.36;72.90;95672.78;5038506;28;20020;-74
2021/11/04 08:43:16;;;;;;;36.20;21.50;;;;;;;12.50;72.89;95676.53;5036292;28;20547;-73
2021/11/04 08:45:42;;;;;;;33.78;21.15;;;;;;;12.63;72.15;95672.34;5036594;28;20033;-74
2021/11/04 08:48:08;;;;;;;32.05;21.30;;;;;;;12.70;72.13;95668.72;5033537;28;20395;-73
2021/11/04 08:50:33;;;;;;;39.65;20.20;;;;;;;12.77;71.96;95659.94;5032366;28;20495;-73
2021/11/04 08:52:59;;;;;;;29.88;19.30;;;;;;;12.89;71.86;95654.91;5032169;28;20021;-74
2021/11/04 08:55:24;;;;;;;33.05;19.35;;;;;;;12.92;71.24;95647.31;5017627;28;20021;-73
2021/11/04 08:57:51;;;;;;;32.05;19.05;;;;;;;12.95;71.57;95648.78;5031723;28;20025;-74
2021/11/04 09:00:16;;;;;;;31.45;18.65;;;;;;;13.04;70.68;95655.75;5033650;28;20021;-73
2021/11/04 09:02:42;;;;;;;26.60;17.52;;;;;;;13.12;70.56;95657.53;5037364;28;20485;-74
2021/11/04 09:05:08;;;;;;;32.97;18.67;;;;;;;13.27;69.74;95646.72;5031309;28;20459;-73
2021/11/04 09:07:34;;;;;;;32.60;19.17;;;;;;;13.34;70.23;95653.03;5020507;28;20024;-73
2021/11/04 09:10:00;;;;;;;31.17;17.90;;;;;;;13.41;69.58;95650.38;5033306;28;20423;-74
2021/11/04 09:12:26;;;;;;;30.02;17.17;;;;;;;13.46;69.42;95645.25;5034850;28;20121;-79
2021/11/04 09:14:51;;;;;;;28.63;17.05;;;;;;;13.51;69.67;95641.22;5016555;28;20029;-77
2021/11/04 09:17:18;;;;;;;28.35;15.65;;;;;;;13.69;69.10;95644.31;5034614;28;20026;-77
2021/11/04 09:19:43;;;;;;;24.48;15.02;;;;;;;13.80;69.21;95640.25;5033375;28;20025;-78
2021/11/04 09:22:09;;;;;;;24.00;14.30;;;;;;;13.89;68.05;95632.91;5036302;28;20038;-77
2021/11/04 09:24:34;;;;;;;22.27;13.43;;;;;;;13.96;67.52;95636.47;5035779;28;20083;-76
2021/11/04 09:27:02;;;;;;;21.38;12.75;;;;;;;14.10;66.67;95650.09;5032922;28;20060;-77
2021/11/04 09:29:28;;;;;;;18.65;11.63;;;;;;;14.17;65.91;95656.34;5033425;28;20115;-77
2021/11/04 09:31:55;;;;;;;25.25;14.88;;;;;;;14.19;66.05;95658.88;5030742;28;20025;-77
2021/11/04 09:34:21;;;;;;;22.63;12.75;;;;;;;14.16;65.95;95660.09;5036762;28;20065;-77
2021/11/04 09:36:46;;;;;;;18.27;11.38;;;;;;;14.29;65.39;95648.59;5033502;28;20036;-77
2021/11/04 09:39:11;;;;;;;20.25;13.07;;;;;;;14.47;65.55;95652.66;5019929;28;20450;-76
2021/11/04 09:41:37;;;;;;;22.65;12.43;;;;;;;14.52;65.21;95643.97;5035147;28;20852;-75
2021/11/04 09:44:04;;;;;;;23.60;12.43;;;;;;;14.62;64.93;95636.34;5038950;28;20533;-75
2021/11/04 09:46:30;;;;;;;20.98;11.43;;;;;;;14.66;64.52;95645.72;5043075;28;20056;-74
2021/11/04 09:48:55;;;;;;;22.88;12.20;;;;;;;14.73;63.94;95637.69;5041288;28;20079;-75
2021/11/04 09:51:21;;;;;;;18.02;11.63;;;;;;;14.84;64.36;95639.03;5031859;28;20035;-74
2021/11/04 09:53:49;;;;;;;17.27;10.30;;;;;;;15.03;64.31;95631.22;5034586;28;20033;-75
2021/11/04 09:56:15;;;;;;;22.73;11.27;;;;;;;15.10;63.32;95624.00;5030468;28;20115;-76
2021/11/04 09:58:42;;;;;;;19.13;11.80;;;;;;;15.12;63.74;95623.78;5002954;28;20025;-74
2021/11/04 10:01:17;;;;;;;20.85;11.20;;;;;;;15.23;63.60;95619.66;5033190;28;20029;-75
2021/11/04 10:03:42;;;;;;;18.13;10.13;;;;;;;15.27;63.03;95610.13;5022683;28;20037;-78
2021/11/04 10:06:19;;;;;;;23.42;11.07;;;;;;;15.31;62.43;95598.69;5029707;28;20102;-76
2021/11/04 10:08:48;;;;;;;17.88;10.43;;;;;;;15.39;62.52;95596.88;5036163;28;20444;-75
2021/11/04 10:11:13;;;;;;;18.40;10.45;;;;;;;15.45;62.18;95598.75;5030175;28;20495;-75
2021/11/04 10:13:43;;;;;;;16.77;10.43;;;;;;;15.50;62.43;95587.31;5027225;28;20033;-75
2021/11/04 10:16:09;;;;;;;20.95;10.90;;;;;;;15.58;62.15;95584.44;5024178;28;20035;-76
2021/11/04 10:18:45;;;;;;;21.50;10.10;;;;;;;15.67;61.76;95580.50;5041716;28;20071;-75
2021/11/04 10:21:10;;;;;;;18.55;9.65;;;;;;;15.72;61.22;95577.16;5042778;28;20523;-75
2021/11/04 10:23:44;;;;;;;18.30;8.15;;;;;;;15.84;61.61;95569.28;5025689;28;20112;-76
2021/11/04 10:26:20;;;;;;;16.70;9.88;;;;;;;15.86;61.38;95567.22;5043503;28;20025;-76
2021/11/04 10:28:47;;;;;;;18.30;9.45;;;;;;;16.00;62.42;95573.50;5024654;28;20032;-74
2021/11/04 10:31:14;;;;;;;14.90;9.00;;;;;;;16.11;61.33;95560.34;5026641;28;20091;-75
2021/11/04 10:33:41;;;;;;;16.80;9.20;;;;;;;16.23;60.61;95563.28;5042979;28;20032;-75
2021/11/04 10:36:20;;;;;;;17.08;9.93;;;;;;;16.31;60.51;95563.88;5042140;28;20028;-75
2021/11/04 10:38:50;;;;;;;13.40;8.40;;;;;;;16.34;60.02;95561.81;5042939;28;20032;-75
2021/11/04 10:41:28;;;;;;;19.83;7.00;;;;;;;16.46;59.22;95556.59;5039491;28;20530;-74
2021/11/04 10:44:05;;;;;;;17.45;6.03;;;;;;;16.48;59.63;95552.63;5035313;28;20051;-76
2021/11/04 10:46:31;;;;;;;8.25;5.47;;;;;;;16.58;59.55;95552.19;5016459;28;20033;-76
2021/11/04 10:49:00;;;;;;;12.98;6.60;;;;;;;16.64;59.19;95551.31;5020922;28;20167;-77
2021/11/04 10:51:26;;;;;;;10.55;5.50;;;;;;;16.72;58.58;95544.84;5038808;28;20025;-76
2021/11/04 10:53:59;;;;;;;11.32;5.20;;;;;;;16.79;58.57;95534.00;5036481;28;20017;-77
2021/11/04 10:56:25;;;;;;;12.05;5.20;;;;;;;16.86;58.15;95534.78;5038565;28;20463;-77
2021/11/04 10:59:12;;;;;;;12.25;6.50;;;;;;;16.89;57.82;95539.81;5033367;28;20724;-79
2021/11/04 11:01:52;;;;;;;7.90;5.43;;;;;;;17.00;58.03;95535.59;5043809;28;20453;-78
2021/11/04 11:04:19;;;;;;;11.50;6.05;;;;;;;17.05;58.33;95537.66;5036698;28;20087;-79
2021/11/04 11:06:45;;;;;;;9.23;5.65;;;;;;;17.13;57.95;95529.31;5036263;28;20068;-78
2021/11/04 11:09:14;;;;;;;9.85;5.80;;;;;;;17.18;57.79;95524.03;5038567;28;20044;-78
2021/11/04 11:11:41;;;;;;;9.68;5.30;;;;;;;17.24;57.59;95525.06;5034538;28;20068;-79
2021/11/04 11:14:06;;;;;;;9.35;5.20;;;;;;;17.25;56.52;95517.78;5045521;28;20094;-78
2021/11/04 11:16:34;;;;;;;8.48;5.78;;;;;;;17.23;57.07;95512.59;5038965;28;20029;-78
2021/11/04 11:19:00;;;;;;;9.32;5.47;;;;;;;17.28;57.30;95503.78;5034362;28;20057;-79
2021/11/04 11:21:29;;;;;;;13.68;5.60;;;;;;;17.35;56.89;95503.72;5036697;28;20085;-79